Time;durP1;ratioP1;P1;durP2;ratioP2;P2;SDS_P1;SDS_P2;PMS_P1;PMS_P2;Temp;Humidity;BMP_temperature;BMP_pressure;BME280_temperature;BME280_humidity;BME280_pressure;Samples;Min_cycle;Max_cycle;Signal;HPM_P1;HPM_P2
2022/12/05 00:01:26;;;;;;;11.13;2.80;;;26.40;58.80;;;;;;5042659;28;20620;-68
2022/12/05 00:03:56;;;;;;;8.97;2.20;;;26.40;58.70;;;;;;5048772;28;20183;-69
2022/12/05 00:06:25;;;;;;;7.93;2.17;;;26.40;59.10;;;;;;5049389;28;20681;-69
2022/12/05 00:08:52;;;;;;;13.37;4.33;;;26.70;58.10;;;;;;5045770;28;20172;-71
2022/12/05 00:11:22;;;;;;;6.63;2.90;;;26.60;58.90;;;;;;5031975;28;20191;-69
2022/12/05 00:13:52;;;;;;;5.50;2.60;;;26.80;58.10;;;;;;5043376;28;20518;-70
2022/12/05 00:16:22;;;;;;;8.60;2.40;;;26.80;57.90;;;;;;5042795;28;20210;-70
2022/12/05 00:18:50;;;;;;;9.60;2.07;;;27.10;57.40;;;;;;5035891;28;20270;-70
2022/12/05 00:21:23;;;;;;;8.53;2.30;;;27.00;57.40;;;;;;5042798;28;20181;-68
2022/12/05 00:23:51;;;;;;;6.40;2.20;;;27.20;57.00;;;;;;5035933;28;20183;-69
2022/12/05 00:26:20;;;;;;;15.27;2.90;;;27.30;56.40;;;;;;5035526;28;20207;-70
2022/12/05 00:28:47;;;;;;;10.00;2.63;;;27.10;57.20;;;;;;5041839;28;20207;-70
2022/12/05 00:31:17;;;;;;;10.63;2.50;;;27.30;56.60;;;;;;5042776;28;20250;-70
2022/12/05 00:33:45;;;;;;;8.13;1.90;;;27.20;56.50;;;;;;5040859;28;20179;-69
2022/12/05 00:36:19;;;;;;;7.40;2.10;;;27.10;56.70;;;;;;5047607;28;20638;-70
2022/12/05 00:38:47;;;;;;;7.73;2.50;;;27.30;56.60;;;;;;5046259;28;20226;-71
2022/12/05 00:41:17;;;;;;;11.60;2.40;;;27.60;56.10;;;;;;5036654;28;20180;-71
2022/12/05 00:43:45;;;;;;;10.00;2.50;;;27.80;55.40;;;;;;5046451;28;20187;-71
2022/12/05 00:46:16;;;;;;;11.57;2.50;;;27.50;55.50;;;;;;5040677;28;20221;-71
2022/12/05 00:48:44;;;;;;;14.00;2.40;;;27.80;55.70;;;;;;5034927;28;20644;-69
2022/12/05 00:51:12;;;;;;;9.77;2.47;;;27.90;54.60;;;;;;5037825;28;20188;-70
2022/12/05 00:53:40;;;;;;;7.33;2.10;;;28.00;54.20;;;;;;5053214;28;20279;-70
2022/12/05 00:56:13;;;;;;;3.43;1.60;;;27.90;54.60;;;;;;5038754;28;20272;-71
2022/12/05 00:58:41;;;;;;;9.47;2.50;;;28.20;53.90;;;;;;5044542;28;20234;-70
2022/12/05 01:01:17;;;;;;;6.40;2.20;;;28.30;53.70;;;;;;5039993;28;20184;-70
2022/12/05 01:03:46;;;;;;;13.33;2.60;;;27.80;54.10;;;;;;5049706;28;20175;-71
2022/12/05 01:06:15;;;;;;;10.03;2.57;;;28.00;54.20;;;;;;5039597;28;20208;-70
2022/12/05 01:08:43;;;;;;;11.40;2.83;;;27.80;54.80;;;;;;5047638;28;20189;-70
2022/12/05 01:11:13;;;;;;;12.47;2.53;;;28.20;53.90;;;;;;5041772;28;20180;-68
2022/12/05 01:13:40;;;;;;;14.97;2.50;;;28.10;53.60;;;;;;5038955;28;20199;-69
2022/12/05 01:16:14;;;;;;;5.27;1.90;;;28.60;53.40;;;;;;5038932;28;20188;-69
2022/12/05 01:18:42;;;;;;;9.97;2.40;;;28.40;53.00;;;;;;5057311;28;20619;-68
2022/12/05 01:21:10;;;;;;;12.63;2.70;;;28.30;52.90;;;;;;5048571;28;20184;-69
2022/12/05 01:23:38;;;;;;;7.77;2.33;;;28.60;52.60;;;;;;5036504;28;20198;-70
2022/12/05 01:26:11;;;;;;;13.80;2.50;;;28.80;52.00;;;;;;5035164;28;20204;-69
2022/12/05 01:28:39;;;;;;;12.50;2.60;;;28.80;52.40;;;;;;5047400;28;20184;-69
2022/12/05 01:31:14;;;;;;;10.60;3.13;;;28.80;51.60;;;;;;5051058;28;20252;-68
2022/12/05 01:33:42;;;;;;;11.27;2.73;;;28.80;51.80;;;;;;5035881;28;20172;-70
2022/12/05 01:36:11;;;;;;;15.30;2.63;;;28.70;52.20;;;;;;5050581;28;20199;-69
2022/12/05 01:38:40;;;;;;;14.67;2.77;;;28.70;52.70;;;;;;5052137;28;20655;-69
2022/12/05 01:41:11;;;;;;;12.37;2.80;;;28.60;53.00;;;;;;5046287;28;20865;-70
2022/12/05 01:44:04;;;;;;;15.03;2.73;;;28.80;52.80;;;;;;5047627;28;20184;-68
2022/12/05 01:46:38;;;;;;;12.27;2.63;;;28.80;52.70;;;;;;5034154;28;20251;-68
2022/12/05 01:49:15;;;;;;;14.83;5.97;;;28.90;52.70;;;;;;5039757;28;20265;-67
2022/12/05 01:51:48;;;;;;;6.90;2.50;;;29.10;52.00;;;;;;5036475;28;20263;-68
2022/12/05 01:54:17;;;;;;;7.50;2.73;;;28.90;52.80;;;;;;5038036;28;20662;-68
2022/12/05 01:56:48;;;;;;;10.60;3.23;;;29.40;51.90;;;;;;5048161;28;20287;-68
2022/12/05 01:59:18;;;;;;;11.33;3.13;;;29.30;51.90;;;;;;5051532;28;20180;-68
2022/12/05 02:01:45;;;;;;;15.53;3.40;;;29.30;52.10;;;;;;5034488;28;20173;-68
2022/12/05 02:04:13;;;;;;;9.87;2.40;;;29.60;51.20;;;;;;5034368;28;20551;-69
2022/12/05 02:06:41;;;;;;;10.60;2.73;;;29.60;50.50;;;;;;5049218;28;20200;-68
2022/12/05 02:09:08;;;;;;;12.30;3.03;;;29.80;50.20;;;;;;5042460;28;20529;-69
2022/12/05 02:11:49;;;;;;;8.87;2.57;;;29.50;50.50;;;;;;5060524;28;20191;-68
2022/12/05 02:14:31;;;;;;;9.83;2.70;;;29.70;50.60;;;;;;5047233;28;20222;-69
2022/12/05 02:17:53;;;;;;;14.93;2.83;;;30.00;50.60;;;;;;5035661;28;20184;-69
2022/12/05 02:21:13;;;;;;;9.43;2.60;;;30.10;49.70;;;;;;5053617;28;20664;-69
2022/12/05 02:24:11;;;;;;;11.03;2.87;;;29.50;51.00;;;;;;5033706;28;20283;-70
2022/12/05 02:26:47;;;;;;;9.70;2.67;;;30.00;50.00;;;;;;5041219;28;20294;-68
2022/12/05 02:30:01;;;;;;;8.20;2.63;;;30.10;49.70;;;;;;5052552;28;20195;-68
2022/12/05 02:32:29;;;;;;;11.83;3.33;;;30.20;49.00;;;;;;5036592;28;20224;-69
2022/12/05 02:35:23;;;;;;;7.87;2.30;;;30.30;48.90;;;;;;5049637;28;20183;-69
2022/12/05 02:38:17;;;;;;;8.60;2.13;;;30.20;48.90;;;;;;5048441;28;20714;-69
2022/12/05 02:40:47;;;;;;;9.37;2.20;;;30.30;49.10;;;;;;5033796;28;20275;-69
2022/12/05 02:43:29;;;;;;;7.87;2.60;;;30.60;48.00;;;;;;5046233;28;20681;-69
2022/12/05 02:46:00;;;;;;;11.33;2.50;;;30.90;47.70;;;;;;5031978;28;20247;-70
2022/12/05 02:48:29;;;;;;;11.32;2.30;;;30.60;48.20;;;;;;5038066;28;20231;-69
2022/12/05 02:50:59;;;;;;;11.32;2.33;;;30.60;47.50;;;;;;5042828;28;20172;-70
2022/12/05 02:53:29;;;;;;;7.63;2.45;;;30.40;48.90;;;;;;5033906;28;20181;-70
2022/12/05 02:55:57;;;;;;;5.55;2.22;;;30.70;48.00;;;;;;5036704;28;20276;-69
2022/12/05 02:58:36;;;;;;;8.48;2.03;;;31.10;47.60;;;;;;5048110;28;20879;-69
2022/12/05 03:01:04;;;;;;;9.25;2.65;;;31.00;47.20;;;;;;5033553;28;20242;-69
2022/12/05 03:03:32;;;;;;;11.30;2.58;;;30.50;48.40;;;;;;5032687;28;20605;-69
2022/12/05 03:06:05;;;;;;;14.23;2.60;;;30.80;48.50;;;;;;5032679;28;20220;-69
2022/12/05 03:08:48;;;;;;;6.18;2.03;;;31.00;47.30;;;;;;5034342;28;20510;-70
2022/12/05 03:11:16;;;;;;;8.10;2.65;;;31.20;46.50;;;;;;5032237;28;20192;-71
2022/12/05 03:13:55;;;;;;;13.85;2.92;;;30.90;47.30;;;;;;5045547;28;20216;-69
2022/12/05 03:16:32;;;;;;;11.50;2.70;;;30.80;47.30;;;;;;5047251;28;20195;-68
2022/12/05 03:19:10;;;;;;;10.93;2.38;;;31.10;46.60;;;;;;5047257;28;20223;-69
2022/12/05 03:22:07;;;;;;;9.65;2.22;;;31.00;46.60;;;;;;5041382;28;20175;-69
2022/12/05 03:24:37;;;;;;;9.73;2.22;;;31.40;45.80;;;;;;5058602;28;20672;-69
2022/12/05 03:27:41;;;;;;;12.25;2.75;;;31.60;45.80;;;;;;5048439;28;20211;-68
2022/12/05 03:30:12;;;;;;;6.03;2.17;;;31.30;46.30;;;;;;5039902;28;20179;-68
2022/12/05 03:33:09;;;;;;;7.88;2.38;;;31.50;45.20;;;;;;5034372;28;20183;-69
2022/12/05 03:35:42;;;;;;;7.60;2.88;;;31.40;45.40;;;;;;5032620;28;20708;-69
2022/12/05 03:38:15;;;;;;;6.72;2.03;;;31.30;45.60;;;;;;5047566;28;20188;-69
2022/12/05 03:41:07;;;;;;;9.35;2.53;;;31.20;45.70;;;;;;5032712;28;20184;-68
2022/12/05 03:44:15;;;;;;;9.88;2.30;;;31.40;45.80;;;;;;5053404;28;20192;-69
2022/12/05 03:47:14;;;;;;;9.85;2.45;;;31.60;45.10;;;;;;5025747;28;20216;-70
2022/12/05 03:49:49;;;;;;;11.07;2.53;;;31.30;45.50;;;;;;5016433;28;20193;-68
2022/12/05 03:52:19;;;;;;;6.65;1.75;;;31.40;45.40;;;;;;5015840;28;20177;-69
2022/12/05 03:54:55;;;;;;;8.10;2.00;;;31.30;46.10;;;;;;5016420;28;20216;-67
2022/12/05 03:57:33;;;;;;;11.27;2.40;;;31.70;45.20;;;;;;5026082;28;20181;-68
2022/12/05 04:00:04;;;;;;;8.77;2.15;;;32.00;45.10;;;;;;5022002;28;20318;-67
2022/12/05 04:02:53;;;;;;;8.30;2.47;;;31.90;44.90;;;;;;5022988;28;20177;-69
2022/12/05 04:05:23;;;;;;;11.95;2.42;;;32.20;44.30;;;;;;5020257;28;20173;-68
2022/12/05 04:08:05;;;;;;;11.85;2.58;;;31.80;45.30;;;;;;5009982;28;20553;-68
2022/12/05 04:10:48;;;;;;;7.90;2.17;;;31.70;46.10;;;;;;5015190;28;20239;-69
2022/12/05 04:13:40;;;;;;;13.05;2.42;;;32.10;44.40;;;;;;5019290;28;20219;-69
2022/12/05 04:19:21;;;;;;;11.93;2.78;;;31.30;46.00;;;;;;5017941;28;20195;-69
2022/12/05 04:21:53;;;;;;;7.50;2.15;;;32.00;45.20;;;;;;5014456;28;20179;-69
2022/12/05 04:27:20;;;;;;;12.48;2.22;;;32.30;45.30;;;;;;5015153;28;20223;-69
2022/12/05 04:30:01;;;;;;;9.30;2.05;;;32.00;44.40;;;;;;5026336;28;20177;-70
2022/12/05 04:32:44;;;;;;;10.90;2.17;;;32.10;44.60;;;;;;5011828;28;20264;-67
2022/12/05 04:35:23;;;;;;;11.02;2.25;;;31.70;45.50;;;;;;5012397;28;20543;-68
2022/12/05 04:37:56;;;;;;;12.65;2.47;;;31.40;46.10;;;;;;5012565;28;20204;-68
2022/12/05 04:40:34;;;;;;;14.25;2.72;;;30.90;47.10;;;;;;5011463;28;20213;-67
2022/12/05 04:43:03;;;;;;;13.00;2.63;;;29.90;49.00;;;;;;5027408;28;20542;-67
2022/12/05 04:45:32;;;;;;;6.57;1.98;;;29.30;51.20;;;;;;5026905;28;20173;-67
2022/12/05 04:48:05;;;;;;;13.45;2.90;;;29.30;52.00;;;;;;5019478;28;20717;-69
2022/12/05 04:50:34;;;;;;;13.00;2.83;;;30.60;49.10;;;;;;5044018;28;20627;-69
2022/12/05 04:53:02;;;;;;;9.43;2.20;;;30.80;47.50;;;;;;5032252;28;20173;-70
2022/12/05 04:55:33;;;;;;;9.43;2.53;;;30.10;48.50;;;;;;5032681;28;20184;-70
2022/12/05 04:58:08;;;;;;;9.90;2.50;;;29.50;50.40;;;;;;5032282;28;20238;-67
2022/12/05 05:01:03;;;;;;;7.87;2.60;;;28.80;52.40;;;;;;5035312;28;20277;-68
2022/12/05 05:03:38;;;;;;;9.70;2.70;;;28.80;52.60;;;;;;5043279;28;20650;-70
2022/12/05 05:06:06;;;;;;;15.30;2.90;;;28.40;53.40;;;;;;5036758;28;20366;-68
2022/12/05 05:08:34;;;;;;;17.73;3.07;;;28.30;53.80;;;;;;5048663;28;20290;-69
2022/12/05 05:11:15;;;;;;;12.40;2.83;;;28.00;54.20;;;;;;5049717;28;20188;-70
2022/12/05 05:13:42;;;;;;;10.00;2.33;;;27.60;54.90;;;;;;5036065;28;20188;-68
2022/12/05 05:16:18;;;;;;;10.00;2.47;;;27.40;55.50;;;;;;5044507;28;20537;-68
2022/12/05 05:18:50;;;;;;;8.70;2.43;;;27.30;56.00;;;;;;5043649;28;20180;-70
2022/12/05 05:21:25;;;;;;;10.53;2.70;;;27.30;56.10;;;;;;5054092;28;20674;-68
2022/12/05 05:23:53;;;;;;;13.80;2.80;;;26.90;57.30;;;;;;5045355;28;20333;-68
2022/12/05 05:26:21;;;;;;;8.83;2.33;;;26.70;58.10;;;;;;5034274;28;20291;-68
2022/12/05 05:28:49;;;;;;;15.83;3.07;;;26.50;62.60;;;;;;5045077;28;20250;-69
2022/12/05 05:31:18;;;;;;;16.67;2.67;;;26.10;67.30;;;;;;5045675;28;20184;-69
2022/12/05 05:33:50;;;;;;;12.93;2.50;;;25.70;64.50;;;;;;5034393;28;20185;-71
2022/12/05 05:36:18;;;;;;;31.97;11.37;;;25.70;64.40;;;;;;5035790;28;20195;-69
2022/12/05 05:38:49;;;;;;;31.40;12.10;;;26.90;60.50;;;;;;5037839;28;20191;-69
2022/12/05 05:41:19;;;;;;;25.33;9.53;;;28.10;57.70;;;;;;5052061;28;20667;-71
2022/12/05 05:43:47;;;;;;;11.20;4.57;;;27.30;58.60;;;;;;5048833;28;20183;-71
2022/12/05 05:46:16;;;;;;;11.70;3.60;;;26.80;57.50;;;;;;5035643;28;20629;-69
2022/12/05 05:48:44;;;;;;;11.00;2.80;;;27.00;55.00;;;;;;5034525;28;20605;-69
2022/12/05 05:51:12;;;;;;;24.67;9.20;;;28.00;50.80;;;;;;5035521;28;20176;-68
2022/12/05 05:53:40;;;;;;;23.03;9.47;;;29.60;48.90;;;;;;5039664;28;20234;-68
2022/12/05 05:56:11;;;;;;;22.83;10.20;;;30.70;44.70;;;;;;5038553;28;20183;-68
2022/12/05 05:58:38;;;;;;;15.98;7.97;;;31.70;40.90;;;;;;5039080;28;20180;-68
2022/12/05 06:01:08;;;;;;;11.20;5.17;;;32.00;39.30;;;;;;5039713;28;20263;-69
2022/12/05 06:03:36;;;;;;;10.48;3.83;;;32.60;37.10;;;;;;5040581;28;20180;-69
2022/12/05 06:06:07;;;;;;;9.52;3.05;;;31.60;38.40;;;;;;5044885;28;20240;-67
2022/12/05 06:08:38;;;;;;;8.20;3.13;;;30.40;40.70;;;;;;5041983;28;20658;-68
2022/12/05 06:11:11;;;;;;;7.95;2.72;;;29.70;42.90;;;;;;5034271;28;20179;-68
2022/12/05 06:13:39;;;;;;;6.05;1.98;;;29.50;44.30;;;;;;5049861;28;20725;-71
2022/12/05 06:16:09;;;;;;;3.50;1.80;;;29.10;44.40;;;;;;5045997;28;20214;-70
2022/12/05 06:18:37;;;;;;;9.30;1.73;;;28.50;44.70;;;;;;5066139;28;20183;-70
2022/12/05 06:21:07;;;;;;;8.57;2.23;;;28.10;47.80;;;;;;5035588;28;20179;-68
2022/12/05 06:23:35;;;;;;;9.57;2.20;;;27.60;51.50;;;;;;5036720;28;20192;-69
2022/12/05 06:26:04;;;;;;;9.27;2.33;;;27.40;54.50;;;;;;5034454;28;20203;-70
2022/12/05 06:28:32;;;;;;;6.90;1.83;;;27.70;55.00;;;;;;5047295;28;20684;-69
2022/12/05 06:30:59;;;;;;;8.10;1.80;;;28.30;53.40;;;;;;5050665;28;20237;-70
2022/12/05 06:33:28;;;;;;;8.07;2.20;;;28.90;51.90;;;;;;5037703;28;20180;-69
2022/12/05 06:36:11;;;;;;;6.00;2.10;;;29.50;50.00;;;;;;5047579;28;20196;-68
2022/12/05 06:38:39;;;;;;;4.63;1.97;;;28.30;53.00;;;;;;5039705;28;20183;-69
2022/12/05 06:41:09;;;;;;;10.07;2.23;;;27.80;54.50;;;;;;5041658;28;20208;-68
2022/12/05 06:43:36;;;;;;;7.57;2.17;;;27.60;55.40;;;;;;5049546;28;20195;-68
2022/12/05 06:46:09;;;;;;;10.97;2.20;;;28.00;54.10;;;;;;5049027;28;20279;-69
2022/12/05 06:48:36;;;;;;;10.00;2.77;;;29.00;51.90;;;;;;5039178;28;20586;-70
2022/12/05 06:51:05;;;;;;;11.43;2.30;;;29.80;49.90;;;;;;5048681;28;20178;-69
2022/12/05 06:53:33;;;;;;;8.10;2.00;;;29.40;49.90;;;;;;5039273;28;20188;-68
2022/12/05 06:56:03;;;;;;;9.77;2.40;;;28.20;51.90;;;;;;5051989;28;20233;-69
2022/12/05 06:58:31;;;;;;;13.30;2.73;;;27.40;53.40;;;;;;5052493;28;20178;-68
2022/12/05 07:03:46;;;;;;;9.47;2.73;;;26.60;55.80;;;;;;5051320;28;20711;-66
2022/12/05 07:06:14;;;;;;;11.40;2.53;;;26.40;56.60;;;;;;5040391;28;20528;-68
2022/12/05 07:08:41;;;;;;;9.23;2.50;;;26.30;57.60;;;;;;5039404;28;20196;-68
2022/12/05 07:11:08;;;;;;;12.60;3.10;;;26.10;58.90;;;;;;5052117;28;20214;-69
2022/12/05 07:13:36;;;;;;;6.50;2.10;;;25.90;60.00;;;;;;5033667;28;20657;-68
2022/12/05 07:16:05;;;;;;;8.50;3.17;;;25.90;60.50;;;;;;5032884;28;20185;-67
2022/12/05 07:18:34;;;;;;;14.13;2.50;;;25.80;61.00;;;;;;5032796;28;20200;-68
2022/12/05 07:21:13;;;;;;;9.10;2.47;;;25.90;61.00;;;;;;5033395;28;20639;-69
2022/12/05 07:23:42;;;;;;;9.47;2.63;;;25.90;59.80;;;;;;5044386;28;20175;-69
2022/12/05 07:26:21;;;;;;;7.03;2.07;;;25.90;59.80;;;;;;5051618;28;20213;-67
2022/12/05 07:28:50;;;;;;;6.43;2.00;;;25.90;59.00;;;;;;5045725;28;20279;-68
2022/12/05 07:31:21;;;;;;;6.23;2.13;;;25.90;58.70;;;;;;5035362;28;20192;-69
2022/12/05 07:33:49;;;;;;;7.13;2.30;;;26.00;58.60;;;;;;5034895;28;20176;-68
2022/12/05 07:36:19;;;;;;;7.63;2.10;;;25.90;59.20;;;;;;5034748;28;20180;-66
2022/12/05 07:38:47;;;;;;;7.77;2.20;;;25.90;59.60;;;;;;5039587;28;20183;-68
2022/12/05 07:41:25;;;;;;;8.80;2.47;;;25.90;59.30;;;;;;5050303;28;20246;-67
2022/12/05 07:43:54;;;;;;;10.00;2.47;;;25.80;59.00;;;;;;5042513;28;20206;-68
2022/12/05 07:46:22;;;;;;;6.77;2.30;;;25.80;59.20;;;;;;5032678;28;20576;-68
2022/12/05 07:48:50;;;;;;;8.40;2.83;;;25.90;59.40;;;;;;5039502;28;20224;-68
2022/12/05 07:51:19;;;;;;;9.90;2.47;;;25.90;59.40;;;;;;5035309;28;20172;-69
2022/12/05 07:53:46;;;;;;;9.30;2.33;;;25.80;59.40;;;;;;5033826;28;20518;-68
2022/12/05 07:56:16;;;;;;;7.10;2.37;;;25.80;59.90;;;;;;5051678;28;20665;-67
2022/12/05 07:58:46;;;;;;;10.17;2.87;;;25.70;60.10;;;;;;5043524;28;20207;-70
2022/12/05 08:01:15;;;;;;;13.00;2.97;;;25.70;60.40;;;;;;5045105;28;20598;-68
2022/12/05 08:03:43;;;;;;;10.50;2.37;;;25.60;60.80;;;;;;5039586;28;20545;-67
2022/12/05 08:06:14;;;;;;;8.60;2.70;;;25.60;61.10;;;;;;5045943;28;20204;-67
2022/12/05 08:08:42;;;;;;;10.47;3.10;;;25.60;61.20;;;;;;5042421;28;20607;-67
2022/12/05 08:11:13;;;;;;;17.70;3.43;;;25.50;61.10;;;;;;5036099;28;20799;-68
2022/12/05 08:13:42;;;;;;;20.70;3.50;;;25.30;62.60;;;;;;5053874;28;20288;-69
2022/12/05 08:16:15;;;;;;;20.63;5.90;;;25.00;65.40;;;;;;5038197;28;20189;-67
2022/12/05 08:18:43;;;;;;;21.23;6.60;;;24.90;65.80;;;;;;5031661;28;20187;-66
2022/12/05 08:21:13;;;;;;;13.00;4.93;;;24.90;65.50;;;;;;5045699;28;20192;-67
2022/12/05 08:23:42;;;;;;;16.97;5.10;;;24.90;66.10;;;;;;5043177;28;20540;-68
2022/12/05 08:26:12;;;;;;;13.50;3.50;;;24.70;65.90;;;;;;5048526;28;20349;-68
2022/12/05 08:28:40;;;;;;;14.63;3.33;;;24.70;65.90;;;;;;5050477;28;20239;-68
2022/12/05 08:31:14;;;;;;;9.93;2.90;;;24.60;67.30;;;;;;5052137;28;20175;-68
2022/12/05 08:33:42;;;;;;;13.50;3.40;;;24.60;66.60;;;;;;5049809;28;20250;-68
2022/12/05 08:36:13;;;;;;;13.50;3.43;;;24.60;66.50;;;;;;5038844;28;20655;-69
2022/12/05 08:38:40;;;;;;;11.57;3.10;;;24.50;66.60;;;;;;5046012;28;20242;-68
2022/12/05 08:41:11;;;;;;;11.27;2.87;;;24.40;66.40;;;;;;5046926;28;20181;-68
2022/12/05 08:43:38;;;;;;;17.80;3.50;;;24.40;66.40;;;;;;5053444;28;20271;-67
2022/12/05 08:46:06;;;;;;;16.00;3.77;;;24.40;66.90;;;;;;5038140;28;20569;-68
2022/12/05 08:48:35;;;;;;;16.17;3.87;;;24.20;67.80;;;;;;5041484;28;20228;-67
2022/12/05 08:51:08;;;;;;;11.97;3.07;;;24.10;68.30;;;;;;5038095;28;20556;-68
2022/12/05 08:53:37;;;;;;;15.17;3.40;;;24.00;68.80;;;;;;5046294;28;20237;-68
2022/12/05 08:56:06;;;;;;;15.03;3.10;;;24.00;69.00;;;;;;5045903;28;20666;-67
2022/12/05 08:58:33;;;;;;;11.50;3.10;;;23.80;69.20;;;;;;5047245;28;20180;-68
2022/12/05 09:01:18;;;;;;;11.87;2.80;;;23.70;69.50;;;;;;5038970;28;20180;-67
2022/12/05 09:03:46;;;;;;;13.77;3.50;;;23.60;69.70;;;;;;5035928;28;20185;-67
2022/12/05 09:06:15;;;;;;;9.57;2.70;;;23.60;69.70;;;;;;5036693;28;20244;-68
2022/12/05 09:08:43;;;;;;;13.80;3.20;;;23.70;69.50;;;;;;5048369;28;20658;-68
2022/12/05 09:11:15;;;;;;;15.03;3.50;;;23.70;69.40;;;;;;5044073;28;20596;-69
2022/12/05 09:13:43;;;;;;;19.17;5.00;;;23.70;69.90;;;;;;5046729;28;20677;-68
2022/12/05 09:16:13;;;;;;;17.90;4.10;;;23.60;70.60;;;;;;5049795;28;20183;-68
2022/12/05 09:18:40;;;;;;;16.10;4.27;;;23.60;70.90;;;;;;5059262;28;20530;-66
2022/12/05 09:21:13;;;;;;;20.87;4.50;;;23.60;71.00;;;;;;5044125;28;20173;-66
2022/12/05 09:23:40;;;;;;;22.13;4.03;;;23.60;71.00;;;;;;5035360;28;20216;-66
2022/12/05 09:26:12;;;;;;;16.73;3.57;;;23.70;71.00;;;;;;5035394;28;20212;-66
2022/12/05 09:28:40;;;;;;;22.37;4.30;;;23.70;71.00;;;;;;5043521;28;20188;-67
2022/12/05 09:31:10;;;;;;;13.77;3.63;;;23.70;71.10;;;;;;5036637;28;20177;-66
2022/12/05 09:33:39;;;;;;;14.03;4.00;;;23.80;71.30;;;;;;5041326;28;20175;-66
2022/12/05 09:36:11;;;;;;;17.80;4.10;;;23.70;71.50;;;;;;5052574;28;20538;-66
2022/12/05 09:38:39;;;;;;;13.50;3.50;;;23.80;71.80;;;;;;5041600;28;20180;-66
2022/12/05 09:42:03;;;;;;;17.70;4.67;;;23.70;72.50;;;;;;5037189;28;20172;-68
2022/12/05 09:44:42;;;;;;;20.43;4.60;;;23.50;73.50;;;;;;5050763;28;20547;-67
2022/12/05 09:47:28;;;;;;;18.80;4.60;;;23.30;74.50;;;;;;5049270;28;20227;-68
2022/12/05 09:49:58;;;;;;;33.23;5.27;;;23.20;75.60;;;;;;5047896;28;20250;-73
2022/12/05 09:52:37;;;;;;;22.53;5.17;;;22.60;80.90;;;;;;5034573;28;20234;-69
2022/12/05 09:55:19;;;;;;;35.27;7.77;;;21.90;84.00;;;;;;5036347;28;20230;-68
2022/12/05 09:57:52;;;;;;;34.47;5.83;;;21.60;87.50;;;;;;5047549;28;20267;-68
2022/12/05 10:00:20;;;;;;;19.33;5.97;;;21.40;88.80;;;;;;5057605;28;20203;-68
2022/12/05 10:03:08;;;;;;;28.43;6.17;;;21.30;89.60;;;;;;5034216;28;20188;-68
2022/12/05 10:05:38;;;;;;;23.60;5.43;;;21.30;90.00;;;;;;5044105;28;20680;-67
2022/12/05 10:08:42;;;;;;;24.27;6.10;;;21.30;89.90;;;;;;5034054;28;20684;-67
2022/12/05 10:11:25;;;;;;;21.23;5.53;;;21.30;90.20;;;;;;5038929;28;20178;-67
2022/12/05 10:13:58;;;;;;;23.97;5.93;;;21.30;90.60;;;;;;5034490;28;20208;-67
2022/12/05 10:16:45;;;;;;;21.67;5.77;;;21.30;90.60;;;;;;5033788;28;20580;-67
2022/12/05 10:19:18;;;;;;;24.43;5.73;;;21.40;91.00;;;;;;5039782;28;20181;-67
2022/12/05 10:22:31;;;;;;;22.47;6.00;;;21.40;91.10;;;;;;5033468;28;20176;-67
2022/12/05 10:25:04;;;;;;;25.07;6.17;;;21.50;91.00;;;;;;5047852;28;20219;-67
2022/12/05 10:27:42;;;;;;;20.30;5.87;;;21.60;91.20;;;;;;5044015;28;20204;-67
2022/12/05 10:30:31;;;;;;;22.70;5.90;;;21.70;91.30;;;;;;5037872;28;20534;-67
2022/12/05 10:33:10;;;;;;;20.77;6.03;;;21.70;91.10;;;;;;5043299;28;20666;-67
2022/12/05 10:35:39;;;;;;;22.07;6.17;;;21.50;91.00;;;;;;5048003;28;20216;-68
2022/12/05 10:38:10;;;;;;;21.67;5.43;;;21.50;91.10;;;;;;5033957;28;20186;-68
2022/12/05 10:40:49;;;;;;;19.40;6.27;;;21.40;91.00;;;;;;5034000;28;20207;-69
2022/12/05 10:43:24;;;;;;;25.47;6.10;;;21.40;91.10;;;;;;5033848;28;20266;-68
2022/12/05 10:45:52;;;;;;;19.83;5.80;;;21.40;91.20;;;;;;5040490;28;20175;-68
2022/12/05 10:48:22;;;;;;;25.53;6.67;;;21.30;91.10;;;;;;5032750;28;20703;-68
2022/12/05 10:50:55;;;;;;;28.47;7.10;;;21.30;91.40;;;;;;5035897;28;20177;-67
2022/12/05 10:53:28;;;;;;;25.20;6.70;;;21.20;91.40;;;;;;5048054;28;20212;-68
2022/12/05 10:55:55;;;;;;;27.63;7.50;;;21.10;91.50;;;;;;5038534;28;20632;-68
2022/12/05 10:58:28;;;;;;;38.83;7.17;;;21.00;91.60;;;;;;5036584;28;20189;-70
2022/12/05 11:01:06;;;;;;;30.87;7.90;;;21.00;91.80;;;;;;5037938;28;20185;-71
2022/12/05 11:03:37;;;;;;;34.37;7.73;;;20.90;91.80;;;;;;5035705;28;20191;-71
2022/12/05 11:06:26;;;;;;;27.33;7.13;;;20.80;91.90;;;;;;5037639;28;20238;-70
2022/12/05 11:09:13;;;;;;;26.90;7.20;;;20.70;92.10;;;;;;5040212;28;20172;-70
2022/12/05 11:11:40;;;;;;;27.17;6.80;;;20.60;92.10;;;;;;5035167;28;20172;-69
2022/12/05 11:14:23;;;;;;;28.17;7.10;;;20.40;92.10;;;;;;5035735;28;20172;-68
2022/12/05 11:16:59;;;;;;;31.73;8.10;;;20.20;91.90;;;;;;5032198;28;20263;-68
2022/12/05 11:19:31;;;;;;;24.93;9.33;;;20.10;92.10;;;;;;5032599;28;20176;-68
2022/12/05 11:21:59;;;;;;;25.57;9.23;;;20.00;92.10;;;;;;5054365;28;20182;-68
2022/12/05 11:24:35;;;;;;;36.50;10.83;;;20.00;92.20;;;;;;5046776;28;20180;-68
2022/12/05 11:27:25;;;;;;;36.23;11.73;;;19.90;92.10;;;;;;5043999;28;20295;-69
2022/12/05 11:30:12;;;;;;;41.97;13.97;;;19.90;92.10;;;;;;5036468;28;20540;-67
2022/12/05 11:32:39;;;;;;;50.10;13.57;;;19.90;92.30;;;;;;5032396;28;20546;-69
2022/12/05 11:35:13;;;;;;;54.17;14.53;;;19.80;92.10;;;;;;5043211;28;20171;-70
2022/12/05 11:37:52;;;;;;;41.03;13.83;;;19.70;92.10;;;;;;5038194;28;20180;-68
2022/12/05 11:41:14;;;;;;;47.10;14.33;;;19.70;92.10;;;;;;5043615;28;20240;-70
2022/12/05 11:44:06;;;;;;;50.40;14.90;;;19.70;92.20;;;;;;5031627;28;20200;-70
2022/12/05 11:46:36;;;;;;;45.13;14.63;;;19.70;92.30;;;;;;5032955;28;20323;-68
2022/12/05 11:49:27;;;;;;;53.47;14.90;;;19.70;92.30;;;;;;5042373;28;20250;-68
2022/12/05 11:52:16;;;;;;;58.23;13.97;;;19.70;92.20;;;;;;5038920;28;20187;-67
2022/12/05 11:55:24;;;;;;;52.47;15.70;;;19.50;92.20;;;;;;5034484;28;20169;-69
2022/12/05 11:58:00;;;;;;;54.40;16.17;;;19.60;92.40;;;;;;5043260;28;20639;-68
2022/12/05 12:01:06;;;;;;;54.93;15.17;;;19.60;92.40;;;;;;5042111;28;20541;-67
2022/12/05 12:04:05;;;;;;;53.80;16.20;;;19.70;92.50;;;;;;5033535;28;20179;-68
2022/12/05 12:06:37;;;;;;;45.40;14.30;;;19.70;92.60;;;;;;5040240;28;20258;-69
2022/12/05 12:09:38;;;;;;;57.57;14.73;;;19.60;92.50;;;;;;5042312;28;20721;-70
2022/12/05 12:12:35;;;;;;;57.83;15.33;;;19.60;92.50;;;;;;5042334;28;20215;-68
2022/12/05 12:15:42;;;;;;;63.33;15.40;;;19.60;92.60;;;;;;5039313;28;20191;-68
2022/12/05 12:18:49;;;;;;;53.20;15.07;;;19.60;92.60;;;;;;5036079;28;20273;-67
2022/12/05 12:21:38;;;;;;;53.63;15.40;;;19.50;92.70;;;;;;5036258;28;20208;-69
2022/12/05 12:24:05;;;;;;;64.90;16.00;;;19.50;92.70;;;;;;5031372;28;20188;-69
2022/12/05 12:27:26;;;;;;;61.57;17.37;;;19.60;92.70;;;;;;5036322;28;20266;-68
2022/12/05 12:30:06;;;;;;;61.63;15.80;;;19.60;92.80;;;;;;5032187;28;20181;-69
2022/12/05 12:33:10;;;;;;;50.50;14.37;;;19.60;92.70;;;;;;5037698;28;20216;-68
2022/12/05 12:35:46;;;;;;;60.37;14.60;;;19.50;92.70;;;;;;5049354;28;20180;-68
2022/12/05 12:38:30;;;;;;;52.33;16.47;;;19.50;92.70;;;;;;5035693;28;20639;-68
2022/12/05 12:41:36;;;;;;;57.07;14.80;;;19.50;92.60;;;;;;5035524;28;20210;-68
2022/12/05 12:44:16;;;;;;;52.60;14.90;;;19.40;92.60;;;;;;5035863;28;20177;-68
2022/12/05 12:46:43;;;;;;;49.67;15.23;;;19.40;92.70;;;;;;5045317;28;20658;-69
2022/12/05 12:49:19;;;;;;;53.80;15.20;;;19.30;92.60;;;;;;5037093;28;20227;-68
2022/12/05 12:51:53;;;;;;;48.63;13.80;;;19.30;92.50;;;;;;5037208;28;20267;-68
2022/12/05 12:54:39;;;;;;;52.03;14.23;;;19.30;92.50;;;;;;5035479;28;20227;-68
2022/12/05 12:57:33;;;;;;;50.20;14.93;;;19.20;92.50;;;;;;5035723;28;20185;-67
2022/12/05 13:00:11;;;;;;;50.77;15.03;;;19.20;92.40;;;;;;5043805;28;20180;-69
2022/12/05 13:02:50;;;;;;;43.67;14.80;;;19.20;92.40;;;;;;5044569;28;20192;-70
2022/12/05 13:05:38;;;;;;;55.20;15.73;;;19.20;92.40;;;;;;5036691;28;20176;-70
2022/12/05 13:08:26;;;;;;;41.70;14.67;;;19.20;92.40;;;;;;5042236;28;20615;-70
2022/12/05 13:10:55;;;;;;;42.93;13.40;;;19.20;92.30;;;;;;5035494;28;20327;-70
2022/12/05 13:13:35;;;;;;;48.33;15.57;;;19.20;92.30;;;;;;5035182;28;20658;-71
2022/12/05 13:16:06;;;;;;;43.60;15.17;;;19.20;92.30;;;;;;5035297;28;20188;-72
2022/12/05 13:18:35;;;;;;;47.67;14.80;;;19.20;92.30;;;;;;5034517;28;20326;-71
2022/12/05 13:21:07;;;;;;;47.93;15.27;;;19.30;92.30;;;;;;5036273;28;20283;-70
2022/12/05 13:23:48;;;;;;;39.23;15.00;;;19.30;92.30;;;;;;5034720;28;20177;-72
2022/12/05 13:26:17;;;;;;;43.87;15.40;;;19.30;92.30;;;;;;5041299;28;20214;-71
2022/12/05 13:29:01;;;;;;;46.53;14.77;;;19.30;92.20;;;;;;5039277;28;20686;-70